sensor_id;sensor_type;location;lat;lon;timestamp;pressure;altitude;pressure_sealevel;temperature;humidity
43312;BME280;30041;48.300;16.352;2022-08-05T00:01:40;99596.97;;;25.27;48.71
43312;BME280;30041;48.300;16.352;2022-08-05T00:04:06;99596.97;;;25.27;48.72
43312;BME280;30041;48.300;16.352;2022-08-05T00:06:32;99595.34;;;25.26;48.22
43312;BME280;30041;48.300;16.352;2022-08-05T00:08:57;99592.66;;;25.26;48.39
43312;BME280;30041;48.300;16.352;2022-08-05T00:11:23;99593.44;;;25.26;48.32
43312;BME280;30041;48.300;16.352;2022-08-05T00:13:49;99583.69;;;25.25;48.14
43312;BME280;30041;48.300;16.352;2022-08-05T00:16:14;99584.25;;;25.27;48.26
43312;BME280;30041;48.300;16.352;2022-08-05T00:18:43;99580.97;;;25.25;48.12
43312;BME280;30041;48.300;16.352;2022-08-05T00:21:11;99580.16;;;25.25;48.12
43312;BME280;30041;48.300;16.352;2022-08-05T00:23:37;99581.25;;;25.24;48.09
43312;BME280;30041;48.300;16.352;2022-08-05T00:26:03;99589.38;;;25.24;47.96
43312;BME280;30041;48.300;16.352;2022-08-05T00:28:29;99575.25;;;25.22;48.01
43312;BME280;30041;48.300;16.352;2022-08-05T00:30:55;99577.72;;;25.23;48.13
43312;BME280;30041;48.300;16.352;2022-08-05T00:33:21;99575.00;;;25.23;48.08
43312;BME280;30041;48.300;16.352;2022-08-05T00:35:46;99564.72;;;25.25;47.76
43312;BME280;30041;48.300;16.352;2022-08-05T00:38:12;99568.47;;;25.24;47.68
43312;BME280;30041;48.300;16.352;2022-08-05T00:40:52;99568.47;;;25.24;47.73
43312;BME280;30041;48.300;16.352;2022-08-05T00:43:19;99567.69;;;25.24;47.53
43312;BME280;30041;48.300;16.352;2022-08-05T00:45:46;99562.81;;;25.26;47.87
43312;BME280;30041;48.300;16.352;2022-08-05T00:48:16;99562.25;;;25.24;47.66
43312;BME280;30041;48.300;16.352;2022-08-05T00:50:43;99554.38;;;25.22;47.49
43312;BME280;30041;48.300;16.352;2022-08-05T00:53:11;99560.63;;;25.23;47.68
43312;BME280;30041;48.300;16.352;2022-08-05T00:55:38;99547.06;;;25.23;47.88
43312;BME280;30041;48.300;16.352;2022-08-05T00:58:06;99558.72;;;25.23;47.44
43312;BME280;30041;48.300;16.352;2022-08-05T01:00:32;99549.78;;;25.23;47.62
43312;BME280;30041;48.300;16.352;2022-08-05T01:02:58;99541.34;;;25.24;47.56
43312;BME280;30041;48.300;16.352;2022-08-05T01:05:24;99545.16;;;25.23;47.49
43312;BME280;30041;48.300;16.352;2022-08-05T01:07:50;99542.47;;;25.23;47.58
43312;BME280;30041;48.300;16.352;2022-08-05T01:10:18;99539.47;;;25.25;47.33
43312;BME280;30041;48.300;16.352;2022-08-05T01:12:49;99534.88;;;25.25;47.53
43312;BME280;30041;48.300;16.352;2022-08-05T01:15:21;99536.75;;;25.25;47.26
43312;BME280;30041;48.300;16.352;2022-08-05T01:17:55;99541.91;;;25.21;47.39
43312;BME280;30041;48.300;16.352;2022-08-05T01:23:34;99537.03;;;25.23;47.46
43312;BME280;30041;48.300;16.352;2022-08-05T01:29:25;99531.06;;;25.21;47.46
43312;BME280;30041;48.300;16.352;2022-08-05T01:31:54;99529.69;;;25.19;47.44
43312;BME280;30041;48.300;16.352;2022-08-05T01:34:31;99538.38;;;25.21;47.26
43312;BME280;30041;48.300;16.352;2022-08-05T01:39:52;99529.97;;;25.22;47.38
43312;BME280;30041;48.300;16.352;2022-08-05T01:42:22;99531.88;;;25.22;47.27
43312;BME280;30041;48.300;16.352;2022-08-05T01:44:48;99532.66;;;25.22;47.29
43312;BME280;30041;48.300;16.352;2022-08-05T01:47:17;99528.09;;;25.23;47.16
43312;BME280;30041;48.300;16.352;2022-08-05T01:49:46;99523.19;;;25.20;47.33
43312;BME280;30041;48.300;16.352;2022-08-05T01:52:13;99522.91;;;25.21;47.10
43312;BME280;30041;48.300;16.352;2022-08-05T01:54:43;99516.41;;;25.22;47.16
43312;BME280;30041;48.300;16.352;2022-08-05T01:57:11;99520.22;;;25.21;46.82
43312;BME280;30041;48.300;16.352;2022-08-05T01:59:39;99516.41;;;25.22;47.04
43312;BME280;30041;48.300;16.352;2022-08-05T02:02:08;99515.59;;;25.22;46.89
43312;BME280;30041;48.300;16.352;2022-08-05T02:04:37;99512.88;;;25.22;46.84
43312;BME280;30041;48.300;16.352;2022-08-05T02:07:05;99509.09;;;25.23;46.82
43312;BME280;30041;48.300;16.352;2022-08-05T02:09:31;99509.34;;;25.21;46.79
43312;BME280;30041;48.300;16.352;2022-08-05T02:12:11;99509.63;;;25.20;46.59
43312;BME280;30041;48.300;16.352;2022-08-05T02:17:36;99515.03;;;25.20;46.88
43312;BME280;30041;48.300;16.352;2022-08-05T02:20:07;99511.75;;;25.18;46.67
43312;BME280;30041;48.300;16.352;2022-08-05T02:22:42;99509.03;;;25.18;46.50
43312;BME280;30041;48.300;16.352;2022-08-05T02:25:30;99506.91;;;25.20;46.63
43312;BME280;30041;48.300;16.352;2022-08-05T02:27:57;99509.34;;;25.21;46.57
43312;BME280;30041;48.300;16.352;2022-08-05T02:30:26;99513.97;;;25.21;46.89
43312;BME280;30041;48.300;16.352;2022-08-05T02:32:55;99507.72;;;25.20;46.62
43312;BME280;30041;48.300;16.352;2022-08-05T02:35:27;99509.63;;;25.20;46.56
43312;BME280;30041;48.300;16.352;2022-08-05T02:37:55;99514.22;;;25.19;46.52
43312;BME280;30041;48.300;16.352;2022-08-05T02:40:23;99515.84;;;25.20;46.42
43312;BME280;30041;48.300;16.352;2022-08-05T02:42:51;99508.81;;;25.19;46.37
43312;BME280;30041;48.300;16.352;2022-08-05T02:45:18;99500.09;;;25.17;46.46
43312;BME280;30041;48.300;16.352;2022-08-05T02:47:44;99506.91;;;25.20;46.25
43312;BME280;30041;48.300;16.352;2022-08-05T02:50:11;99499.56;;;25.20;46.48
43312;BME280;30041;48.300;16.352;2022-08-05T02:52:39;99501.47;;;25.20;46.32
43312;BME280;30041;48.300;16.352;2022-08-05T02:55:07;99494.66;;;25.17;46.35
43312;BME280;30041;48.300;16.352;2022-08-05T02:57:34;99495.47;;;25.18;46.13
43312;BME280;30041;48.300;16.352;2022-08-05T03:00:03;99494.91;;;25.16;46.12
43312;BME280;30041;48.300;16.352;2022-08-05T03:02:33;99492.75;;;25.18;45.99
43312;BME280;30041;48.300;16.352;2022-08-05T03:05:01;99497.38;;;25.17;46.42
43312;BME280;30041;48.300;16.352;2022-08-05T03:07:28;99499.53;;;25.15;46.38
43312;BME280;30041;48.300;16.352;2022-08-05T03:09:54;99497.63;;;25.16;46.20
43312;BME280;30041;48.300;16.352;2022-08-05T03:12:30;99502.25;;;25.15;46.27
43312;BME280;30041;48.300;16.352;2022-08-05T03:14:56;99494.66;;;25.17;46.20
43312;BME280;30041;48.300;16.352;2022-08-05T03:17:22;99501.47;;;25.20;46.16
43312;BME280;30041;48.300;16.352;2022-08-05T03:19:51;99493.56;;;25.18;46.13
43312;BME280;30041;48.300;16.352;2022-08-05T03:22:16;99492.19;;;25.16;46.38
43312;BME280;30041;48.300;16.352;2022-08-05T03:24:47;99487.63;;;25.16;46.11
43312;BME280;30041;48.300;16.352;2022-08-05T03:27:14;99489.50;;;25.16;46.29
43312;BME280;30041;48.300;16.352;2022-08-05T03:29:39;99492.19;;;25.16;46.39
43312;BME280;30041;48.300;16.352;2022-08-05T03:32:07;99484.91;;;25.16;46.07
43312;BME280;30041;48.300;16.352;2022-08-05T03:34:33;99485.44;;;25.18;46.13
43312;BME280;30041;48.300;16.352;2022-08-05T03:37:03;99487.63;;;25.16;45.84
43312;BME280;30041;48.300;16.352;2022-08-05T03:39:30;99493.03;;;25.16;45.75
43312;BME280;30041;48.300;16.352;2022-08-05T03:41:56;99497.63;;;25.16;45.75
43312;BME280;30041;48.300;16.352;2022-08-05T03:44:22;99492.50;;;25.14;46.01
43312;BME280;30041;48.300;16.352;2022-08-05T03:46:48;99496.56;;;25.17;45.88
43312;BME280;30041;48.300;16.352;2022-08-05T03:49:14;99497.63;;;25.16;46.00
43312;BME280;30041;48.300;16.352;2022-08-05T03:51:55;99498.72;;;25.15;46.18
43312;BME280;30041;48.300;16.352;2022-08-05T03:56:52;99505.75;;;25.16;46.05
43312;BME280;30041;48.300;16.352;2022-08-05T03:59:32;99499.28;;;25.17;45.78
43312;BME280;30041;48.300;16.352;2022-08-05T04:02:00;99499.78;;;25.14;46.00
43312;BME280;30041;48.300;16.352;2022-08-05T04:04:28;99501.44;;;25.15;45.96
43312;BME280;30041;48.300;16.352;2022-08-05T04:06:55;99495.47;;;25.13;45.84
43312;BME280;30041;48.300;16.352;2022-08-05T04:09:22;99494.91;;;25.11;45.65
43312;BME280;30041;48.300;16.352;2022-08-05T04:11:48;99497.63;;;25.11;45.85
43312;BME280;30041;48.300;16.352;2022-08-05T04:14:15;99500.88;;;25.13;45.87
43312;BME280;30041;48.300;16.352;2022-08-05T04:16:43;99493.00;;;25.11;45.68
43312;BME280;30041;48.300;16.352;2022-08-05T04:19:12;99495.47;;;25.13;45.68
43312;BME280;30041;48.300;16.352;2022-08-05T04:21:38;99493.81;;;25.12;45.78
43312;BME280;30041;48.300;16.352;2022-08-05T04:24:05;99493.56;;;25.13;45.86
43312;BME280;30041;48.300;16.352;2022-08-05T04:26:30;99498.97;;;25.13;46.13
43312;BME280;30041;48.300;16.352;2022-08-05T04:28:56;99494.38;;;25.14;45.93
43312;BME280;30041;48.300;16.352;2022-08-05T04:31:22;99497.06;;;25.14;45.86
43312;BME280;30041;48.300;16.352;2022-08-05T04:33:50;99492.50;;;25.14;46.12
43312;BME280;30041;48.300;16.352;2022-08-05T04:36:15;99491.66;;;25.14;45.89
43312;BME280;30041;48.300;16.352;2022-08-05T04:38:42;99493.03;;;25.16;46.18
43312;BME280;30041;48.300;16.352;2022-08-05T04:41:07;99484.34;;;25.14;46.15
43312;BME280;30041;48.300;16.352;2022-08-05T04:43:33;99493.56;;;25.13;45.57
43312;BME280;30041;48.300;16.352;2022-08-05T04:45:59;99490.34;;;25.16;45.72
43312;BME280;30041;48.300;16.352;2022-08-05T04:48:25;99489.25;;;25.17;45.92
43312;BME280;30041;48.300;16.352;2022-08-05T04:50:51;99484.06;;;25.16;45.96
43312;BME280;30041;48.300;16.352;2022-08-05T04:53:17;99492.50;;;25.14;46.26
43312;BME280;30041;48.300;16.352;2022-08-05T04:55:44;99496.56;;;25.17;46.32
43312;BME280;30041;48.300;16.352;2022-08-05T04:58:14;99491.13;;;25.17;46.13
43312;BME280;30041;48.300;16.352;2022-08-05T05:00:40;99491.41;;;25.15;46.05
43312;BME280;30041;48.300;16.352;2022-08-05T05:03:07;99493.09;;;25.26;46.56
43312;BME280;30041;48.300;16.352;2022-08-05T05:05:34;99484.16;;;25.36;46.22
43312;BME280;30041;48.300;16.352;2022-08-05T05:08:02;99489.31;;;25.43;46.19
43312;BME280;30041;48.300;16.352;2022-08-05T05:10:29;99486.91;;;25.46;46.04
43312;BME280;30041;48.300;16.352;2022-08-05T05:12:55;99489.38;;;25.48;46.19
43312;BME280;30041;48.300;16.352;2022-08-05T05:15:21;99493.69;;;25.49;46.01
43312;BME280;30041;48.300;16.352;2022-08-05T05:17:49;99491.78;;;25.50;46.03
43312;BME280;30041;48.300;16.352;2022-08-05T05:20:14;99496.69;;;25.53;45.98
43312;BME280;30041;48.300;16.352;2022-08-05T05:22:40;99492.34;;;25.52;45.84
43312;BME280;30041;48.300;16.352;2022-08-05T05:25:09;99489.09;;;25.55;45.82
43312;BME280;30041;48.300;16.352;2022-08-05T05:27:35;99488.31;;;25.54;45.83
43312;BME280;30041;48.300;16.352;2022-08-05T05:30:09;99489.66;;;25.57;45.87
43312;BME280;30041;48.300;16.352;2022-08-05T05:32:37;99495.09;;;25.57;45.96
43312;BME280;30041;48.300;16.352;2022-08-05T05:35:06;99488.00;;;25.56;45.90
43312;BME280;30041;48.300;16.352;2022-08-05T05:37:31;99499.97;;;25.60;45.95
43312;BME280;30041;48.300;16.352;2022-08-05T05:39:57;99497.81;;;25.57;45.09
43312;BME280;30041;48.300;16.352;2022-08-05T05:42:26;99488.00;;;25.51;44.88
43312;BME280;30041;48.300;16.352;2022-08-05T05:44:52;99486.63;;;25.43;44.57
43312;BME280;30041;48.300;16.352;2022-08-05T05:47:17;99499.38;;;25.42;44.35
43312;BME280;30041;48.300;16.352;2022-08-05T05:49:43;99493.41;;;25.40;44.32
43312;BME280;30041;48.300;16.352;2022-08-05T05:52:08;99494.75;;;25.43;44.64
43312;BME280;30041;48.300;16.352;2022-08-05T05:54:34;99502.38;;;25.46;44.99
43312;BME280;30041;48.300;16.352;2022-08-05T05:57:00;99498.31;;;25.54;44.83
43312;BME280;30041;48.300;16.352;2022-08-05T05:59:26;99507.56;;;25.63;45.00
43312;BME280;30041;48.300;16.352;2022-08-05T06:01:51;99514.09;;;25.62;44.95
43312;BME280;30041;48.300;16.352;2022-08-05T06:04:17;99510.81;;;25.60;45.17
43312;BME280;30041;48.300;16.352;2022-08-05T06:06:43;99511.34;;;25.52;45.27
43312;BME280;30041;48.300;16.352;2022-08-05T06:09:09;99515.16;;;25.56;45.25
43312;BME280;30041;48.300;16.352;2022-08-05T06:11:35;99508.13;;;25.70;45.36
43312;BME280;30041;48.300;16.352;2022-08-05T06:14:01;99509.22;;;25.74;45.18
43312;BME280;30041;48.300;16.352;2022-08-05T06:16:27;99508.13;;;25.70;44.92
43312;BME280;30041;48.300;16.352;2022-08-05T06:18:53;99507.59;;;25.68;45.22
43312;BME280;30041;48.300;16.352;2022-08-05T06:21:19;99506.75;;;25.67;45.11
43312;BME280;30041;48.300;16.352;2022-08-05T06:23:44;99511.66;;;25.71;45.07
43312;BME280;30041;48.300;16.352;2022-08-05T06:26:11;99506.50;;;25.69;45.28
43312;BME280;30041;48.300;16.352;2022-08-05T06:28:36;99510.84;;;25.70;45.69
43312;BME280;30041;48.300;16.352;2022-08-05T06:31:02;99515.19;;;25.71;46.19
43312;BME280;30041;48.300;16.352;2022-08-05T06:33:28;99511.91;;;25.74;46.15
43312;BME280;30041;48.300;16.352;2022-08-05T06:35:53;99516.03;;;25.77;46.24
43312;BME280;30041;48.300;16.352;2022-08-05T06:38:19;99517.34;;;25.74;46.67
43312;BME280;30041;48.300;16.352;2022-08-05T06:40:45;99527.13;;;25.70;47.19
43312;BME280;30041;48.300;16.352;2022-08-05T06:43:12;99526.03;;;25.71;46.98
43312;BME280;30041;48.300;16.352;2022-08-05T06:45:38;99524.13;;;25.72;46.76
43312;BME280;30041;48.300;16.352;2022-08-05T06:48:04;99522.78;;;25.74;46.72
43312;BME280;30041;48.300;16.352;2022-08-05T06:50:29;99523.63;;;25.75;47.21
43312;BME280;30041;48.300;16.352;2022-08-05T06:52:55;99514.63;;;25.69;47.30
43312;BME280;30041;48.300;16.352;2022-08-05T06:55:21;99514.38;;;25.76;47.27
43312;BME280;30041;48.300;16.352;2022-08-05T06:57:46;99505.16;;;25.77;47.18
43312;BME280;30041;48.300;16.352;2022-08-05T07:00:12;99517.34;;;25.74;47.07
43312;BME280;30041;48.300;16.352;2022-08-05T07:02:45;99507.06;;;25.81;46.90
43312;BME280;30041;48.300;16.352;2022-08-05T07:05:11;99504.63;;;25.80;47.10
43312;BME280;30041;48.300;16.352;2022-08-05T07:07:39;99501.59;;;25.76;47.04
43312;BME280;30041;48.300;16.352;2022-08-05T07:10:06;99510.03;;;25.80;46.97
43312;BME280;30041;48.300;16.352;2022-08-05T07:12:35;99505.97;;;25.77;47.03
43312;BME280;30041;48.300;16.352;2022-08-05T07:15:00;99511.13;;;25.79;46.91
43312;BME280;30041;48.300;16.352;2022-08-05T07:17:26;99513.00;;;25.78;46.77
43312;BME280;30041;48.300;16.352;2022-08-05T07:19:52;99513.31;;;25.82;46.97
43312;BME280;30041;48.300;16.352;2022-08-05T07:22:17;99513.56;;;25.80;46.94
43312;BME280;30041;48.300;16.352;2022-08-05T07:24:43;99505.72;;;25.79;47.00
43312;BME280;30041;48.300;16.352;2022-08-05T07:27:09;99504.31;;;25.76;47.18
43312;BME280;30041;48.300;16.352;2022-08-05T07:29:34;99502.72;;;25.80;47.07
43312;BME280;30041;48.300;16.352;2022-08-05T07:32:02;99505.97;;;25.77;47.15
43312;BME280;30041;48.300;16.352;2022-08-05T07:34:28;99507.63;;;25.83;47.38
43312;BME280;30041;48.300;16.352;2022-08-05T07:36:54;99510.34;;;25.83;47.25
43312;BME280;30041;48.300;16.352;2022-08-05T07:39:19;99516.28;;;25.75;47.72
43312;BME280;30041;48.300;16.352;2022-08-05T07:41:45;99503.25;;;25.77;47.48
43312;BME280;30041;48.300;16.352;2022-08-05T07:44:11;99507.59;;;25.78;47.37
43312;BME280;30041;48.300;16.352;2022-08-05T07:46:36;99499.72;;;25.77;47.56
43312;BME280;30041;48.300;16.352;2022-08-05T07:49:03;99507.88;;;25.77;47.48
43312;BME280;30041;48.300;16.352;2022-08-05T07:51:32;99513.56;;;25.80;47.52
43312;BME280;30041;48.300;16.352;2022-08-05T07:53:58;99506.53;;;25.79;47.79
43312;BME280;30041;48.300;16.352;2022-08-05T07:56:24;99503.81;;;25.79;47.53
43312;BME280;30041;48.300;16.352;2022-08-05T07:58:49;99510.84;;;25.80;47.62
43312;BME280;30041;48.300;16.352;2022-08-05T08:01:15;99509.22;;;25.79;47.73
43312;BME280;30041;48.300;16.352;2022-08-05T08:03:41;99512.47;;;25.76;47.92
43312;BME280;30041;48.300;16.352;2022-08-05T08:06:06;99521.44;;;25.77;47.82
43312;BME280;30041;48.300;16.352;2022-08-05T08:08:32;99511.41;;;25.77;47.85
43312;BME280;30041;48.300;16.352;2022-08-05T08:10:58;99505.16;;;25.77;47.71
43312;BME280;30041;48.300;16.352;2022-08-05T08:13:23;99505.16;;;25.77;47.72
43312;BME280;30041;48.300;16.352;2022-08-05T08:15:49;99509.22;;;25.79;47.71
43312;BME280;30041;48.300;16.352;2022-08-05T08:18:15;99503.81;;;25.79;47.43
43312;BME280;30041;48.300;16.352;2022-08-05T08:20:43;99501.34;;;25.83;47.70
43312;BME280;30041;48.300;16.352;2022-08-05T08:23:09;99504.34;;;25.81;47.85
43312;BME280;30041;48.300;16.352;2022-08-05T08:25:34;99502.72;;;25.80;47.48
43312;BME280;30041;48.300;16.352;2022-08-05T08:28:00;99500.53;;;25.82;47.62
43312;BME280;30041;48.300;16.352;2022-08-05T08:30:28;99503.00;;;25.84;47.95
43312;BME280;30041;48.300;16.352;2022-08-05T08:32:54;99503.03;;;25.89;47.65
43312;BME280;30041;48.300;16.352;2022-08-05T08:35:20;99508.72;;;25.87;47.75
43312;BME280;30041;48.300;16.352;2022-08-05T08:37:45;99501.63;;;25.86;47.76
43312;BME280;30041;48.300;16.352;2022-08-05T08:40:11;99504.34;;;25.86;47.59
43312;BME280;30041;48.300;16.352;2022-08-05T08:42:38;99495.66;;;25.84;47.79
43312;BME280;30041;48.300;16.352;2022-08-05T08:45:04;99500.03;;;25.85;47.62
43312;BME280;30041;48.300;16.352;2022-08-05T08:47:32;99495.41;;;25.86;47.50
43312;BME280;30041;48.300;16.352;2022-08-05T08:49:57;99488.06;;;25.81;47.78
43312;BME280;30041;48.300;16.352;2022-08-05T08:52:33;99495.66;;;25.84;47.71
43312;BME280;30041;48.300;16.352;2022-08-05T08:54:59;99493.19;;;25.83;47.67
43312;BME280;30041;48.300;16.352;2022-08-05T08:57:26;99497.81;;;25.82;47.95
43312;BME280;30041;48.300;16.352;2022-08-05T08:59:52;99501.09;;;25.84;47.71
43312;BME280;30041;48.300;16.352;2022-08-05T09:02:19;99489.69;;;25.82;47.74
43312;BME280;30041;48.300;16.352;2022-08-05T09:04:45;99493.75;;;25.80;47.86
43312;BME280;30041;48.300;16.352;2022-08-05T09:07:12;99492.41;;;25.82;47.87
43312;BME280;30041;48.300;16.352;2022-08-05T09:09:37;99493.19;;;25.83;47.73
43312;BME280;30041;48.300;16.352;2022-08-05T09:12:05;99496.19;;;25.86;48.00
43312;BME280;30041;48.300;16.352;2022-08-05T09:14:33;99492.69;;;25.86;47.83
43312;BME280;30041;48.300;16.352;2022-08-05T09:16:59;99497.03;;;25.82;47.95
43312;BME280;30041;48.300;16.352;2022-08-05T09:19:25;99491.03;;;25.85;47.89
43312;BME280;30041;48.300;16.352;2022-08-05T09:21:51;99496.75;;;25.83;47.94
43312;BME280;30041;48.300;16.352;2022-08-05T09:24:17;99491.88;;;25.85;47.84
43312;BME280;30041;48.300;16.352;2022-08-05T09:26:49;99489.19;;;25.91;47.99
43312;BME280;30041;48.300;16.352;2022-08-05T09:29:15;99499.78;;;25.92;48.09
43312;BME280;30041;48.300;16.352;2022-08-05T09:31:42;99494.88;;;25.94;47.81
43312;BME280;30041;48.300;16.352;2022-08-05T09:34:08;99502.22;;;25.88;47.92
43312;BME280;30041;48.300;16.352;2022-08-05T09:36:48;99496.78;;;25.88;48.02
43312;BME280;30041;48.300;16.352;2022-08-05T09:39:15;99495.69;;;25.89;48.20
43312;BME280;30041;48.300;16.352;2022-08-05T09:42:17;99492.41;;;25.87;47.94
43312;BME280;30041;48.300;16.352;2022-08-05T09:44:49;99492.97;;;25.89;48.21
43312;BME280;30041;48.300;16.352;2022-08-05T09:47:19;99494.06;;;25.88;48.09
43312;BME280;30041;48.300;16.352;2022-08-05T09:49:50;99501.63;;;25.86;48.00
43312;BME280;30041;48.300;16.352;2022-08-05T09:52:21;99493.25;;;25.93;48.04
43312;BME280;30041;48.300;16.352;2022-08-05T09:55:07;99478.88;;;25.93;48.18
43312;BME280;30041;48.300;16.352;2022-08-05T09:57:40;99486.47;;;25.91;48.13
43312;BME280;30041;48.300;16.352;2022-08-05T10:00:16;99485.38;;;25.92;47.81
43312;BME280;30041;48.300;16.352;2022-08-05T10:02:44;99491.34;;;25.88;48.15
43312;BME280;30041;48.300;16.352;2022-08-05T10:05:13;99488.38;;;25.90;48.12
43312;BME280;30041;48.300;16.352;2022-08-05T10:07:43;99482.94;;;25.90;48.22
43312;BME280;30041;48.300;16.352;2022-08-05T10:10:09;99485.13;;;25.88;48.11
43312;BME280;30041;48.300;16.352;2022-08-05T10:12:42;99486.47;;;25.91;48.21
43312;BME280;30041;48.300;16.352;2022-08-05T10:15:34;99485.34;;;25.86;48.02
43312;BME280;30041;48.300;16.352;2022-08-05T10:18:14;99483.75;;;25.91;48.16
43312;BME280;30041;48.300;16.352;2022-08-05T10:20:43;99477.22;;;25.92;48.02
43312;BME280;30041;48.300;16.352;2022-08-05T10:23:11;99478.31;;;25.96;48.04
43312;BME280;30041;48.300;16.352;2022-08-05T10:25:38;99480.78;;;25.92;48.18
43312;BME280;30041;48.300;16.352;2022-08-05T10:28:05;99472.09;;;25.90;48.08
43312;BME280;30041;48.300;16.352;2022-08-05T10:30:30;99468.28;;;25.91;48.17
43312;BME280;30041;48.300;16.352;2022-08-05T10:33:00;99468.81;;;25.88;48.07
43312;BME280;30041;48.300;16.352;2022-08-05T10:35:26;99472.63;;;25.92;47.95
43312;BME280;30041;48.300;16.352;2022-08-05T10:37:53;99471.25;;;25.89;48.13
43312;BME280;30041;48.300;16.352;2022-08-05T10:43:31;99475.28;;;25.87;48.30
43312;BME280;30041;48.300;16.352;2022-08-05T10:46:03;99468.28;;;25.91;48.13
43312;BME280;30041;48.300;16.352;2022-08-05T10:48:38;99465.28;;;25.93;47.89
43312;BME280;30041;48.300;16.352;2022-08-05T10:51:15;99467.72;;;25.94;48.12
43312;BME280;30041;48.300;16.352;2022-08-05T10:56:18;99460.66;;;25.93;48.02
43312;BME280;30041;48.300;16.352;2022-08-05T11:01:29;99457.69;;;25.95;48.04
43312;BME280;30041;48.300;16.352;2022-08-05T11:06:28;99460.13;;;25.91;48.02
43312;BME280;30041;48.300;16.352;2022-08-05T11:09:16;99456.88;;;25.89;48.20
43312;BME280;30041;48.300;16.352;2022-08-05T11:11:46;99458.75;;;25.94;48.07
43312;BME280;30041;48.300;16.352;2022-08-05T11:14:13;99456.06;;;25.94;48.15
43312;BME280;30041;48.300;16.352;2022-08-05T11:19:50;99444.94;;;25.95;48.24
43312;BME280;30041;48.300;16.352;2022-08-05T11:22:46;99443.81;;;26.12;48.24
43312;BME280;30041;48.300;16.352;2022-08-05T11:25:28;99446.81;;;26.15;48.29
43312;BME280;30041;48.300;16.352;2022-08-05T11:27:53;99444.09;;;26.15;48.31
43312;BME280;30041;48.300;16.352;2022-08-05T11:30:19;99445.44;;;26.18;48.37
43312;BME280;30041;48.300;16.352;2022-08-05T11:32:45;99437.03;;;26.09;48.88
43312;BME280;30041;48.300;16.352;2022-08-05T11:38:14;99445.47;;;26.02;48.78
43312;BME280;30041;48.300;16.352;2022-08-05T11:41:00;99438.66;;;26.05;48.37
43312;BME280;30041;48.300;16.352;2022-08-05T11:43:29;99432.16;;;26.06;48.52
43312;BME280;30041;48.300;16.352;2022-08-05T11:45:55;99435.94;;;26.05;48.52
43312;BME280;30041;48.300;16.352;2022-08-05T11:48:20;99440.84;;;26.03;48.56
43312;BME280;30041;48.300;16.352;2022-08-05T11:50:47;99439.75;;;26.04;48.08
43312;BME280;30041;48.300;16.352;2022-08-05T11:53:14;99436.22;;;26.08;48.24
43312;BME280;30041;48.300;16.352;2022-08-05T11:55:58;99435.69;;;26.06;48.30
43312;BME280;30041;48.300;16.352;2022-08-05T11:58:36;99445.47;;;26.13;48.00
43312;BME280;30041;48.300;16.352;2022-08-05T12:01:06;99439.50;;;26.11;48.27
43312;BME280;30041;48.300;16.352;2022-08-05T12:03:55;99431.31;;;26.05;48.47
43312;BME280;30041;48.300;16.352;2022-08-05T12:06:22;99432.41;;;26.09;48.20
43312;BME280;30041;48.300;16.352;2022-08-05T12:08:54;99431.31;;;26.05;48.17
43312;BME280;30041;48.300;16.352;2022-08-05T12:11:23;99434.03;;;26.05;48.21
43312;BME280;30041;48.300;16.352;2022-08-05T12:14:03;99439.22;;;26.07;48.18
43312;BME280;30041;48.300;16.352;2022-08-05T12:16:37;99439.22;;;26.07;48.27
43312;BME280;30041;48.300;16.352;2022-08-05T12:19:04;99435.69;;;26.06;48.08
43312;BME280;30041;48.300;16.352;2022-08-05T12:21:32;99436.50;;;26.07;48.19
43312;BME280;30041;48.300;16.352;2022-08-05T12:24:07;99437.59;;;26.06;48.03
43312;BME280;30041;48.300;16.352;2022-08-05T12:26:41;99431.31;;;26.05;48.21
43312;BME280;30041;48.300;16.352;2022-08-05T12:29:15;99432.69;;;26.03;48.12
43312;BME280;30041;48.300;16.352;2022-08-05T12:31:47;99438.13;;;26.03;48.18
43312;BME280;30041;48.300;16.352;2022-08-05T12:34:13;99425.91;;;26.05;48.33
43312;BME280;30041;48.300;16.352;2022-08-05T12:36:39;99430.00;;;26.08;48.09
43312;BME280;30041;48.300;16.352;2022-08-05T12:39:05;99426.44;;;26.07;48.18
43312;BME280;30041;48.300;16.352;2022-08-05T12:41:33;99425.91;;;26.05;48.16
43312;BME280;30041;48.300;16.352;2022-08-05T12:44:05;99421.31;;;26.06;48.23
43312;BME280;30041;48.300;16.352;2022-08-05T12:46:33;99416.94;;;26.05;48.28
43312;BME280;30041;48.300;16.352;2022-08-05T12:49:04;99428.09;;;26.03;48.27
43312;BME280;30041;48.300;16.352;2022-08-05T12:51:30;99421.31;;;26.06;48.24
43312;BME280;30041;48.300;16.352;2022-08-05T12:54:01;99414.22;;;26.05;48.35
43312;BME280;30041;48.300;16.352;2022-08-05T12:56:28;99412.06;;;26.07;48.35
43312;BME280;30041;48.300;16.352;2022-08-05T12:59:11;99421.31;;;26.06;48.19
43312;BME280;30041;48.300;16.352;2022-08-05T13:01:40;99416.38;;;26.18;48.79
43312;BME280;30041;48.300;16.352;2022-08-05T13:04:06;99418.28;;;26.18;48.29
43312;BME280;30041;48.300;16.352;2022-08-05T13:06:32;99418.56;;;26.16;48.21
43312;BME280;30041;48.300;16.352;2022-08-05T13:09:05;99415.28;;;26.14;48.35
43312;BME280;30041;48.300;16.352;2022-08-05T13:11:31;99408.25;;;26.13;48.16
43312;BME280;30041;48.300;16.352;2022-08-05T13:13:56;99403.34;;;26.15;48.31
43312;BME280;30041;48.300;16.352;2022-08-05T13:16:22;99409.31;;;26.12;48.10
43312;BME280;30041;48.300;16.352;2022-08-05T13:18:52;99408.25;;;26.13;48.76
43312;BME280;30041;48.300;16.352;2022-08-05T13:21:20;99401.44;;;26.16;47.94
43312;BME280;30041;48.300;16.352;2022-08-05T13:23:45;99390.84;;;26.19;47.90
43312;BME280;30041;48.300;16.352;2022-08-05T13:26:11;99404.16;;;26.21;48.02
43312;BME280;30041;48.300;16.352;2022-08-05T13:28:36;99397.09;;;26.20;47.57